Time;durP1;ratioP1;P1;durP2;ratioP2;P2;SDS_P1;SDS_P2;PMS_P1;PMS_P2;Temp;Humidity;BMP_temperature;BMP_pressure;BME280_temperature;BME280_humidity;BME280_pressure;Samples;Min_cycle;Max_cycle;Signal;HPM_P1;HPM_P2
2021/12/16 00:02:06;;;;;;;36.67;12.98;;;8.90;99.90;;;;;;5095397;28;20439;-73
2021/12/16 01:34:47;;;;;;;32.97;11.23;;;8.80;99.90;;;;;;5098604;28;20096;-73
2021/12/16 01:47:40;;;;;;;32.20;11.52;;;8.80;99.90;;;;;;5097756;28;20035;-72
2021/12/16 01:50:12;;;;;;;30.42;11.07;;;8.80;99.90;;;;;;5109582;28;20015;-75
2021/12/16 01:53:47;;;;;;;29.77;10.63;;;8.80;99.90;;;;;;5113335;28;20110;-73
2021/12/16 01:55:35;;;;;;;36.08;12.15;;;8.80;99.90;;;;;;5110067;28;20123;-73
2021/12/16 01:58:16;;;;;;;31.42;11.07;;;8.80;99.90;;;;;;5114791;28;20028;-73
2021/12/16 02:00:55;;;;;;;31.95;12.32;;;8.80;99.90;;;;;;5096799;28;20032;-72
2021/12/16 02:03:27;;;;;;;31.20;11.80;;;8.80;99.90;;;;;;5077360;28;20112;-74
2021/12/16 02:08:31;;;;;;;34.33;12.90;;;8.70;99.90;;;;;;5114468;28;20032;-74
2021/12/16 02:11:27;;;;;;;34.60;12.63;;;8.70;99.90;;;;;;5112586;28;20073;-74
2021/12/16 02:27:49;;;;;;;37.10;12.45;;;8.70;99.90;;;;;;5094610;28;20054;-74
2021/12/16 02:35:42;;;;;;;33.97;13.43;;;8.60;99.90;;;;;;5112317;28;20471;-74
2021/12/16 02:38:11;;;;;;;41.38;13.88;;;8.60;99.90;;;;;;5108473;28;20387;-74
2021/12/16 02:40:37;;;;;;;33.83;12.35;;;8.70;99.90;;;;;;5102434;28;20027;-74
2021/12/16 02:48:30;;;;;;;42.67;14.27;;;8.70;99.90;;;;;;5093529;28;20027;-75
2021/12/16 02:51:10;;;;;;;40.72;13.60;;;8.70;99.90;;;;;;5105909;28;20028;-74
2021/12/16 02:53:40;;;;;;;40.35;14.75;;;8.80;99.90;;;;;;5093609;28;20052;-74
2021/12/16 02:56:06;;;;;;;45.53;14.30;;;8.80;99.90;;;;;;5093373;28;20039;-75
2021/12/16 02:58:33;;;;;;;35.95;13.70;;;8.70;99.90;;;;;;5081367;28;20031;-72
2021/12/16 03:01:10;;;;;;;34.80;13.57;;;8.70;99.90;;;;;;5106571;28;20024;-73
2021/12/16 03:03:38;;;;;;;42.40;15.07;;;8.70;99.90;;;;;;5092152;28;20020;-72
2021/12/16 03:06:04;;;;;;;42.25;15.23;;;8.70;99.90;;;;;;5094330;28;20028;-72
2021/12/16 03:08:32;;;;;;;41.63;14.57;;;8.80;99.90;;;;;;5076082;28;20031;-72
2021/12/16 03:13:35;;;;;;;40.83;14.68;;;8.80;99.90;;;;;;5117453;28;20073;-74
2021/12/16 03:21:15;;;;;;;44.13;15.13;;;8.80;99.90;;;;;;5114484;28;20525;-72
2021/12/16 03:37:41;;;;;;;44.30;15.93;;;8.70;99.90;;;;;;5116984;28;20395;-72
2021/12/16 03:39:53;;;;;;;42.05;16.55;;;8.60;99.90;;;;;;5099611;28;20032;-72
2021/12/16 03:42:27;;;;;;;53.97;17.33;;;8.60;99.90;;;;;;5095943;28;20077;-74
2021/12/16 03:44:59;;;;;;;45.83;16.67;;;8.60;99.90;;;;;;5096847;28;20095;-72
2021/12/16 03:47:32;;;;;;;46.53;16.17;;;8.60;99.90;;;;;;5117157;28;20039;-73
2021/12/16 03:49:58;;;;;;;44.05;16.35;;;8.50;99.90;;;;;;5117122;28;20425;-73
2021/12/16 03:52:24;;;;;;;39.92;15.85;;;8.60;99.90;;;;;;5081310;28;20028;-73
2021/12/16 03:54:52;;;;;;;43.97;16.52;;;8.50;99.90;;;;;;5096708;28;20495;-74
2021/12/16 03:57:21;;;;;;;46.03;16.60;;;8.50;99.90;;;;;;5078012;28;20210;-73
2021/12/16 03:59:48;;;;;;;39.30;15.48;;;8.50;99.90;;;;;;5103321;28;20438;-73
2021/12/16 04:02:21;;;;;;;44.65;14.38;;;8.50;99.90;;;;;;5116713;28;20052;-73
2021/12/16 04:04:48;;;;;;;44.05;16.30;;;8.50;99.90;;;;;;5116636;28;20035;-73
2021/12/16 04:07:14;;;;;;;41.55;16.23;;;8.50;99.90;;;;;;5114529;28;20028;-73
2021/12/16 04:09:40;;;;;;;45.80;16.23;;;8.40;99.90;;;;;;5116258;28;20066;-73
2021/12/16 04:12:12;;;;;;;44.60;16.05;;;8.40;99.90;;;;;;5116618;28;20043;-72
2021/12/16 04:14:40;;;;;;;49.58;15.90;;;8.50;99.90;;;;;;5116630;28;20020;-73
2021/12/16 04:17:08;;;;;;;50.80;17.50;;;8.50;99.90;;;;;;5116931;28;20027;-74
2021/12/16 04:19:35;;;;;;;42.45;15.23;;;8.50;99.90;;;;;;5109837;28;20055;-74
2021/12/16 04:22:11;;;;;;;49.78;16.23;;;8.50;99.90;;;;;;5095695;28;20017;-74
2021/12/16 04:24:39;;;;;;;46.83;17.13;;;8.40;99.90;;;;;;5111979;28;20019;-74
2021/12/16 04:27:07;;;;;;;47.53;16.42;;;8.40;99.90;;;;;;5116283;28;20040;-74
2021/12/16 04:29:33;;;;;;;44.75;17.00;;;8.40;99.90;;;;;;5103276;28;20051;-74
2021/12/16 04:32:00;;;;;;;46.38;16.13;;;8.40;99.90;;;;;;5097022;28;20021;-74
2021/12/16 04:34:26;;;;;;;47.47;15.95;;;8.40;99.90;;;;;;5116034;28;20073;-74
2021/12/16 04:36:53;;;;;;;43.80;15.95;;;8.40;99.90;;;;;;5114696;28;20028;-74
2021/12/16 04:39:23;;;;;;;42.17;15.80;;;8.30;99.90;;;;;;5104676;28;20020;-74
2021/12/16 04:41:51;;;;;;;47.33;15.88;;;8.40;99.90;;;;;;5095943;28;20076;-74
2021/12/16 04:44:17;;;;;;;38.33;15.82;;;8.30;99.90;;;;;;5105432;28;20035;-74
2021/12/16 04:46:43;;;;;;;44.15;16.20;;;8.30;99.90;;;;;;5114316;28;20036;-73
2021/12/16 04:49:11;;;;;;;43.92;14.70;;;8.30;99.90;;;;;;5115366;28;20024;-72
2021/12/16 04:51:40;;;;;;;46.55;15.63;;;8.30;99.90;;;;;;5107152;28;20020;-73
2021/12/16 04:54:08;;;;;;;46.50;14.98;;;8.30;99.90;;;;;;5095482;28;20028;-72
2021/12/16 04:56:35;;;;;;;44.55;16.17;;;8.30;99.90;;;;;;5105765;28;20049;-73
2021/12/16 04:59:07;;;;;;;45.95;15.43;;;8.30;99.90;;;;;;5116497;28;20019;-73
2021/12/16 05:01:38;;;;;;;44.55;15.88;;;8.30;99.90;;;;;;5108449;28;20027;-72
2021/12/16 05:04:04;;;;;;;49.85;15.80;;;8.30;99.90;;;;;;5114381;28;20032;-72
2021/12/16 05:06:30;;;;;;;45.67;16.23;;;8.30;99.90;;;;;;5095445;28;20126;-72
2021/12/16 05:08:56;;;;;;;45.65;15.48;;;8.40;99.90;;;;;;5113452;28;20099;-72
2021/12/16 05:11:21;;;;;;;44.88;14.88;;;8.40;99.90;;;;;;5112174;28;20052;-73
2021/12/16 05:13:48;;;;;;;47.10;15.15;;;8.40;99.90;;;;;;5099724;28;20034;-72
2021/12/16 05:16:14;;;;;;;46.60;15.02;;;8.40;99.90;;;;;;5113350;28;20036;-73
2021/12/16 05:18:41;;;;;;;42.00;14.38;;;8.40;99.90;;;;;;5115490;28;20368;-72
2021/12/16 05:21:36;;;;;;;46.00;13.95;;;8.30;99.90;;;;;;5096729;28;20024;-72
2021/12/16 05:24:25;;;;;;;52.10;14.70;;;8.30;99.90;;;;;;5097065;28;20434;-72
2021/12/16 05:27:09;;;;;;;39.95;14.75;;;8.30;99.90;;;;;;5074352;28;20424;-72
2021/12/16 05:29:36;;;;;;;42.25;14.55;;;8.30;99.90;;;;;;5089226;28;20150;-73
2021/12/16 05:32:02;;;;;;;38.00;14.50;;;8.30;99.90;;;;;;5096321;28;20040;-72
2021/12/16 05:34:29;;;;;;;42.90;14.13;;;8.30;99.90;;;;;;5094705;28;20038;-72
2021/12/16 05:36:55;;;;;;;45.55;13.95;;;8.30;99.90;;;;;;5095908;28;20024;-72
2021/12/16 05:39:21;;;;;;;39.55;13.93;;;8.30;99.90;;;;;;5095500;28;20024;-72
2021/12/16 05:41:48;;;;;;;47.92;16.15;;;8.30;99.90;;;;;;5096139;28;20031;-72
2021/12/16 05:44:14;;;;;;;37.75;13.88;;;8.30;99.90;;;;;;5101791;28;20024;-72
2021/12/16 05:46:40;;;;;;;43.95;13.73;;;8.30;99.90;;;;;;5109860;28;20036;-72
2021/12/16 05:49:09;;;;;;;39.78;13.18;;;8.30;99.90;;;;;;5095625;28;20028;-72
2021/12/16 05:51:38;;;;;;;39.92;12.48;;;8.30;99.90;;;;;;5101038;28;20028;-72
2021/12/16 05:54:06;;;;;;;42.75;14.38;;;8.30;99.90;;;;;;5114535;28;20084;-74
2021/12/16 05:56:32;;;;;;;42.17;14.25;;;8.30;99.90;;;;;;5111854;28;20032;-73
2021/12/16 05:58:58;;;;;;;42.60;13.80;;;8.30;99.90;;;;;;5094429;28;20031;-72
2021/12/16 06:01:28;;;;;;;40.65;13.50;;;8.30;99.90;;;;;;5103209;28;20026;-74
2021/12/16 06:03:55;;;;;;;40.03;14.48;;;8.40;99.90;;;;;;5114249;28;20061;-73
2021/12/16 06:06:22;;;;;;;40.55;12.38;;;8.30;99.90;;;;;;5114006;28;20063;-74
2021/12/16 06:08:49;;;;;;;40.95;13.07;;;8.30;99.90;;;;;;5094540;28;20024;-75
2021/12/16 06:11:20;;;;;;;36.88;13.43;;;8.30;99.90;;;;;;5081259;28;20041;-73
2021/12/16 06:14:05;;;;;;;35.95;13.57;;;8.20;99.90;;;;;;5114324;28;20027;-72
2021/12/16 06:27:32;;;;;;;35.17;12.20;;;8.10;99.90;;;;;;5108435;28;20105;-74
2021/12/16 06:29:58;;;;;;;41.63;14.65;;;8.20;99.90;;;;;;5093335;28;20044;-73
2021/12/16 06:32:25;;;;;;;38.47;13.40;;;8.20;99.90;;;;;;5094820;28;20430;-72
2021/12/16 06:34:52;;;;;;;35.38;12.98;;;8.20;99.90;;;;;;5107037;28;20049;-72
2021/12/16 06:37:18;;;;;;;35.40;12.20;;;8.20;99.90;;;;;;5103719;28;20031;-72
2021/12/16 06:39:44;;;;;;;44.45;13.73;;;8.20;99.90;;;;;;5102174;28;20032;-72
2021/12/16 06:42:11;;;;;;;38.80;13.57;;;8.20;99.90;;;;;;5113946;28;20027;-72
2021/12/16 06:44:43;;;;;;;43.78;13.63;;;8.20;99.90;;;;;;5099647;28;20035;-72
2021/12/16 06:47:15;;;;;;;38.92;12.77;;;8.20;99.90;;;;;;5109312;28;20035;-73
2021/12/16 06:49:44;;;;;;;34.65;12.52;;;8.20;99.90;;;;;;5113512;28;20054;-72
2021/12/16 06:52:13;;;;;;;38.95;13.45;;;8.20;99.90;;;;;;5113360;28;20094;-73
2021/12/16 06:57:39;;;;;;;36.22;13.30;;;8.20;99.90;;;;;;5113439;28;20073;-72
2021/12/16 07:00:02;;;;;;;42.80;12.82;;;8.20;99.90;;;;;;5112643;28;20027;-72
2021/12/16 07:05:14;;;;;;;35.25;12.23;;;8.10;99.90;;;;;;5094598;28;20107;-72
2021/12/16 07:07:40;;;;;;;35.55;11.70;;;8.20;99.90;;;;;;5091104;28;20471;-72
2021/12/16 07:10:08;;;;;;;42.15;13.05;;;8.10;99.90;;;;;;5082311;28;20042;-73
2021/12/16 07:12:36;;;;;;;41.40;13.82;;;8.20;99.90;;;;;;5100638;28;20124;-72
2021/12/16 07:15:10;;;;;;;40.92;12.60;;;8.20;99.90;;;;;;5095688;28;20029;-72
2021/12/16 07:17:37;;;;;;;42.70;13.63;;;8.20;99.90;;;;;;5079145;28;20027;-72
2021/12/16 07:20:04;;;;;;;39.67;13.52;;;8.10;99.90;;;;;;5094061;28;20028;-72
2021/12/16 07:22:30;;;;;;;40.90;13.18;;;8.20;99.90;;;;;;5093088;28;20036;-73
2021/12/16 07:24:56;;;;;;;36.55;12.10;;;8.20;99.90;;;;;;5103406;28;20583;-72
2021/12/16 07:27:21;;;;;;;43.47;13.38;;;8.10;99.90;;;;;;5113474;28;20070;-72
2021/12/16 07:29:47;;;;;;;40.88;11.68;;;8.10;99.90;;;;;;5101624;28;20483;-73
2021/12/16 07:32:12;;;;;;;39.60;13.35;;;8.10;99.90;;;;;;5073687;28;20117;-73
2021/12/16 07:34:38;;;;;;;39.75;12.30;;;8.10;99.90;;;;;;5099337;28;20028;-72
2021/12/16 07:37:06;;;;;;;44.88;12.85;;;8.10;99.90;;;;;;5092404;28;20025;-72
2021/12/16 07:39:38;;;;;;;37.70;14.20;;;8.10;99.90;;;;;;5094985;28;20019;-73
2021/12/16 07:42:06;;;;;;;45.25;13.63;;;8.20;99.90;;;;;;5092468;28;20032;-73
2021/12/16 07:44:34;;;;;;;40.08;12.73;;;8.20;99.90;;;;;;5093033;28;20080;-72
2021/12/16 07:47:02;;;;;;;39.33;14.27;;;8.10;99.90;;;;;;5096221;28;20027;-72
2021/12/16 07:49:32;;;;;;;41.05;15.95;;;8.10;99.90;;;;;;5100134;28;20016;-72
2021/12/16 07:52:00;;;;;;;52.20;20.10;;;8.10;99.90;;;;;;5096408;28;20032;-72
2021/12/16 07:54:27;;;;;;;45.05;15.82;;;8.20;99.90;;;;;;5093401;28;20490;-72
2021/12/16 07:56:55;;;;;;;40.90;14.05;;;8.10;99.90;;;;;;5074785;28;20027;-72
2021/12/16 07:59:21;;;;;;;47.90;15.23;;;8.10;99.90;;;;;;5095585;28;20027;-73
2021/12/16 08:01:47;;;;;;;40.75;14.32;;;8.20;99.90;;;;;;5096605;28;20028;-72
2021/12/16 08:04:20;;;;;;;57.63;18.75;;;8.20;99.90;;;;;;5094949;28;20111;-72
2021/12/16 08:06:49;;;;;;;44.33;14.73;;;8.20;99.90;;;;;;5097718;28;20039;-72
2021/12/16 08:09:15;;;;;;;45.20;15.05;;;8.20;99.90;;;;;;5077929;28;20027;-72
2021/12/16 08:11:42;;;;;;;58.45;18.20;;;8.30;99.90;;;;;;5095151;28;20051;-72
2021/12/16 08:14:08;;;;;;;45.60;14.63;;;8.30;99.90;;;;;;5095582;28;20035;-72
2021/12/16 08:16:35;;;;;;;51.47;16.15;;;8.30;99.90;;;;;;5096300;28;20028;-72
2021/12/16 08:19:03;;;;;;;52.25;15.65;;;8.30;99.90;;;;;;5095957;28;20024;-72
2021/12/16 08:21:29;;;;;;;82.18;24.10;;;8.30;99.90;;;;;;5095599;28;20036;-72
2021/12/16 08:23:57;;;;;;;57.90;17.35;;;8.40;99.90;;;;;;5095987;28;20020;-72
2021/12/16 08:26:23;;;;;;;40.60;14.52;;;8.40;99.90;;;;;;5095939;28;20070;-72
2021/12/16 08:28:49;;;;;;;53.70;18.13;;;8.40;99.90;;;;;;5095963;28;20077;-72
2021/12/16 08:31:15;;;;;;;50.10;16.08;;;8.40;99.90;;;;;;5095620;28;20020;-72
2021/12/16 08:33:40;;;;;;;53.83;17.10;;;8.40;99.90;;;;;;5095898;28;20051;-72
2021/12/16 08:36:08;;;;;;;43.70;15.00;;;8.40;99.90;;;;;;5094753;28;20395;-72
2021/12/16 08:38:35;;;;;;;42.22;14.40;;;8.50;99.90;;;;;;5095187;28;20032;-72
2021/12/16 08:41:07;;;;;;;37.15;14.25;;;8.50;99.90;;;;;;5095444;28;20024;-72
2021/12/16 08:43:40;;;;;;;38.00;14.70;;;8.50;99.90;;;;;;5095715;28;20475;-72
2021/12/16 08:46:07;;;;;;;41.15;16.00;;;8.60;99.90;;;;;;5093973;28;20055;-72
2021/12/16 08:48:33;;;;;;;44.22;15.23;;;8.60;99.90;;;;;;5095459;28;20048;-73
2021/12/16 08:50:59;;;;;;;40.75;14.23;;;8.60;99.90;;;;;;5095249;28;20031;-73
2021/12/16 08:53:25;;;;;;;40.58;14.52;;;8.60;99.90;;;;;;5094035;28;20023;-72
2021/12/16 08:55:54;;;;;;;47.10;16.52;;;8.70;99.90;;;;;;5094897;28;20383;-73
2021/12/16 08:58:22;;;;;;;47.08;15.63;;;8.70;99.90;;;;;;5095046;28;20046;-73
2021/12/16 09:00:56;;;;;;;46.83;14.05;;;8.80;99.90;;;;;;5095134;28;20024;-73
2021/12/16 09:03:23;;;;;;;49.95;14.88;;;8.80;99.90;;;;;;5098354;28;20066;-73
2021/12/16 09:05:49;;;;;;;45.53;16.70;;;8.90;99.90;;;;;;5100441;28;20030;-73
2021/12/16 09:08:15;;;;;;;44.90;15.13;;;8.90;99.90;;;;;;5093662;28;20472;-73
2021/12/16 09:10:41;;;;;;;37.03;14.25;;;9.10;99.90;;;;;;5076686;28;20024;-73
2021/12/16 09:13:12;;;;;;;43.40;15.30;;;9.10;99.90;;;;;;5095008;28;20523;-73
2021/12/16 09:15:54;;;;;;;47.80;16.65;;;9.20;99.90;;;;;;5095533;28;20040;-73
2021/12/16 09:18:26;;;;;;;50.10;16.35;;;9.20;99.90;;;;;;5094884;28;20032;-73
2021/12/16 09:20:54;;;;;;;52.92;17.25;;;9.30;99.90;;;;;;5095064;28;20020;-76
2021/12/16 09:23:20;;;;;;;40.42;15.07;;;9.40;99.90;;;;;;5093791;28;20024;-74
2021/12/16 09:25:51;;;;;;;44.95;15.75;;;9.40;99.90;;;;;;5094856;28;20024;-73
2021/12/16 09:28:20;;;;;;;44.13;15.33;;;9.50;99.90;;;;;;5093242;28;20070;-74
2021/12/16 09:30:46;;;;;;;41.70;16.20;;;9.50;99.90;;;;;;5094626;28;20273;-72
2021/12/16 09:33:16;;;;;;;37.22;14.85;;;9.60;99.90;;;;;;5094827;28;20108;-72
2021/12/16 09:35:46;;;;;;;44.03;15.20;;;9.60;99.90;;;;;;5094830;28;20028;-71
2021/12/16 09:38:13;;;;;;;38.45;14.90;;;9.70;99.90;;;;;;5094775;28;20044;-72
2021/12/16 09:40:48;;;;;;;54.28;18.60;;;9.90;99.90;;;;;;5094640;28;20482;-72
2021/12/16 09:43:15;;;;;;;35.90;14.07;;;9.90;99.90;;;;;;5094635;28;20024;-72
2021/12/16 09:45:41;;;;;;;37.15;15.70;;;10.00;99.90;;;;;;5094426;28;20060;-71
2021/12/16 09:48:07;;;;;;;33.05;14.45;;;10.00;99.90;;;;;;5094256;28;20067;-71
2021/12/16 09:50:34;;;;;;;51.15;19.58;;;10.10;99.90;;;;;;5094115;28;20078;-72
2021/12/16 09:53:01;;;;;;;47.20;17.45;;;10.20;99.90;;;;;;5092970;28;20028;-72
2021/12/16 09:55:27;;;;;;;39.97;15.43;;;10.30;99.90;;;;;;5094626;28;20031;-72
2021/12/16 09:57:54;;;;;;;39.47;15.88;;;10.50;99.90;;;;;;5094299;28;20035;-72
2021/12/16 10:00:24;;;;;;;39.15;16.15;;;10.60;99.90;;;;;;5096452;28;20051;-72
2021/12/16 10:02:52;;;;;;;31.05;13.75;;;10.80;99.90;;;;;;5093030;28;20544;-72
2021/12/16 10:05:18;;;;;;;38.72;14.02;;;11.10;99.90;;;;;;5093128;28;20145;-72
2021/12/16 10:07:44;;;;;;;35.85;14.18;;;11.20;99.90;;;;;;5093222;28;20039;-72
2021/12/16 10:10:24;;;;;;;29.80;13.32;;;11.10;99.90;;;;;;5092092;28;20036;-72
2021/12/16 10:12:51;;;;;;;34.38;14.18;;;11.20;99.90;;;;;;5094024;28;20028;-72
2021/12/16 10:17:58;;;;;;;38.67;13.48;;;11.10;99.90;;;;;;5094099;28;20028;-72
2021/12/16 10:20:29;;;;;;;34.78;15.52;;;11.10;99.90;;;;;;5092809;28;20028;-72
2021/12/16 10:23:05;;;;;;;40.55;17.17;;;11.00;99.90;;;;;;5094008;28;20016;-71
2021/12/16 10:25:44;;;;;;;36.65;13.85;;;11.00;99.90;;;;;;5092429;28;20031;-72
2021/12/16 10:28:23;;;;;;;35.97;15.63;;;11.00;99.90;;;;;;5093914;28;20039;-71
2021/12/16 10:31:09;;;;;;;31.50;13.73;;;11.00;99.90;;;;;;5092431;28;20020;-72
2021/12/16 10:33:39;;;;;;;28.83;12.02;;;11.30;99.90;;;;;;5093739;28;20032;-72
2021/12/16 10:36:10;;;;;;;25.90;12.10;;;11.80;99.90;;;;;;5094170;28;20125;-72
2021/12/16 10:38:53;;;;;;;24.90;10.45;;;12.30;99.90;;;;;;5093684;28;20054;-73
2021/12/16 10:41:38;;;;;;;24.77;9.80;;;12.80;99.90;;;;;;5093525;28;20027;-72
2021/12/16 10:44:09;;;;;;;23.77;9.65;;;13.30;99.90;;;;;;5093865;28;20023;-72
2021/12/16 10:46:42;;;;;;;23.42;8.60;;;13.80;99.90;;;;;;5093868;28;20031;-73
2021/12/16 10:49:21;;;;;;;21.15;8.30;;;14.30;99.90;;;;;;5075140;28;20457;-72
2021/12/16 10:51:48;;;;;;;20.42;7.80;;;14.80;99.90;;;;;;5093191;28;20058;-72
2021/12/16 10:54:20;;;;;;;28.75;8.07;;;15.10;99.90;;;;;;5093347;28;20093;-73
2021/12/16 10:56:58;;;;;;;20.40;7.53;;;15.30;99.90;;;;;;5092198;28;20119;-72
2021/12/16 10:59:29;;;;;;;21.38;8.48;;;15.40;99.90;;;;;;5075547;28;20081;-73
2021/12/16 11:02:00;;;;;;;19.50;8.13;;;15.50;99.90;;;;;;5092882;28;20097;-72
2021/12/16 11:04:36;;;;;;;21.98;8.20;;;15.50;99.90;;;;;;5092891;28;20107;-73
2021/12/16 11:07:08;;;;;;;22.15;8.73;;;15.60;99.90;;;;;;5093462;28;20068;-72
2021/12/16 11:09:43;;;;;;;22.60;8.57;;;15.60;99.90;;;;;;5092264;28;20482;-73
2021/12/16 11:12:14;;;;;;;21.52;8.80;;;15.60;99.90;;;;;;5091925;28;20267;-73
2021/12/16 11:14:44;;;;;;;25.30;9.32;;;15.50;99.90;;;;;;5092000;28;20534;-73
2021/12/16 11:17:12;;;;;;;19.88;8.07;;;15.40;99.90;;;;;;5092942;28;20074;-73
2021/12/16 11:19:44;;;;;;;20.92;8.88;;;15.20;99.90;;;;;;5092826;28;20047;-74
2021/12/16 11:22:12;;;;;;;29.13;9.48;;;14.90;99.90;;;;;;5072879;28;20024;-72
2021/12/16 11:24:38;;;;;;;24.17;9.75;;;14.60;99.90;;;;;;5092069;28;20035;-72
2021/12/16 11:27:28;;;;;;;29.83;11.80;;;14.40;99.90;;;;;;5092287;28;20036;-73
2021/12/16 11:29:55;;;;;;;22.90;10.13;;;14.10;99.90;;;;;;5090160;28;20044;-73
2021/12/16 11:32:43;;;;;;;26.45;10.57;;;14.00;99.90;;;;;;5095061;28;20039;-73
2021/12/16 11:35:37;;;;;;;25.48;9.55;;;13.90;99.90;;;;;;5096860;28;20036;-72
2021/12/16 11:38:25;;;;;;;28.45;9.38;;;13.90;99.90;;;;;;5097229;28;20024;-73
2021/12/16 11:41:03;;;;;;;22.75;9.10;;;13.90;99.90;;;;;;5095390;28;20107;-72
2021/12/16 11:43:58;;;;;;;23.23;8.45;;;13.90;99.90;;;;;;5096461;28;20034;-72
2021/12/16 11:46:38;;;;;;;27.48;9.23;;;13.90;99.90;;;;;;5083134;28;20059;-74
2021/12/16 11:49:08;;;;;;;27.27;9.93;;;13.80;99.90;;;;;;5096523;28;20024;-74
2021/12/16 11:51:50;;;;;;;26.20;10.30;;;13.80;99.90;;;;;;5096910;28;20028;-73
2021/12/16 11:54:21;;;;;;;26.23;8.95;;;13.70;99.90;;;;;;5078323;28;20375;-72
2021/12/16 11:57:15;;;;;;;21.37;9.47;;;13.70;99.90;;;;;;5078615;28;20039;-73
2021/12/16 11:59:45;;;;;;;25.20;9.50;;;13.60;99.90;;;;;;5096171;28;20403;-73
2021/12/16 12:02:32;;;;;;;23.50;9.75;;;13.50;99.90;;;;;;5081733;28;20023;-73
2021/12/16 12:05:22;;;;;;;28.35;10.55;;;13.50;99.90;;;;;;5100009;28;20153;-73
2021/12/16 12:08:00;;;;;;;25.50;8.85;;;13.40;99.90;;;;;;5096774;28;20040;-73
2021/12/16 12:11:06;;;;;;;21.65;9.48;;;13.40;99.90;;;;;;5094931;28;20100;-73
2021/12/16 12:13:36;;;;;;;24.35;9.93;;;13.40;99.90;;;;;;5095998;28;20094;-73
2021/12/16 12:16:02;;;;;;;21.63;9.98;;;13.50;99.90;;;;;;5096150;28;20081;-73
2021/12/16 12:18:32;;;;;;;27.88;10.63;;;13.50;99.90;;;;;;5096242;28;20028;-73
2021/12/16 12:21:39;;;;;;;25.55;11.15;;;13.60;99.90;;;;;;5096503;28;20024;-74
2021/12/16 12:24:16;;;;;;;26.08;9.18;;;13.90;99.90;;;;;;5096106;28;20478;-71
2021/12/16 12:26:55;;;;;;;23.85;9.63;;;14.20;99.90;;;;;;5094921;28;20028;-73
2021/12/16 12:29:28;;;;;;;23.77;9.05;;;14.50;99.90;;;;;;5095115;28;20055;-72
2021/12/16 12:32:18;;;;;;;22.65;9.10;;;14.70;99.90;;;;;;5096132;28;20032;-73
2021/12/16 12:34:47;;;;;;;27.48;9.10;;;14.90;99.90;;;;;;5082185;28;20036;-72
2021/12/16 12:37:16;;;;;;;20.30;8.15;;;15.20;99.90;;;;;;5094830;28;20107;-74
2021/12/16 12:39:45;;;;;;;22.95;9.02;;;15.30;99.90;;;;;;5096198;28;20028;-75
2021/12/16 12:42:11;;;;;;;24.70;8.68;;;15.40;99.90;;;;;;5095738;28;20115;-75
2021/12/16 12:44:38;;;;;;;28.85;11.68;;;15.60;99.90;;;;;;5094972;28;20031;-73
2021/12/16 12:47:07;;;;;;;21.02;9.38;;;15.80;99.90;;;;;;5095353;28;20040;-73
2021/12/16 12:49:32;;;;;;;24.50;9.88;;;15.90;99.90;;;;;;5095819;28;20027;-72
2021/12/16 12:52:20;;;;;;;31.55;11.23;;;16.00;99.90;;;;;;5094433;28;20028;-72
2021/12/16 12:55:01;;;;;;;22.48;9.25;;;16.10;99.90;;;;;;5094279;28;20020;-74
2021/12/16 12:57:33;;;;;;;20.27;8.70;;;16.20;99.90;;;;;;5095526;28;20471;-74
2021/12/16 13:00:03;;;;;;;17.50;7.47;;;16.30;99.90;;;;;;5079194;28;20019;-74
2021/12/16 13:02:35;;;;;;;21.75;8.65;;;16.30;99.90;;;;;;5094797;28;20020;-73
2021/12/16 13:05:19;;;;;;;18.50;7.90;;;16.30;99.90;;;;;;5077039;28;20379;-73
2021/12/16 13:07:52;;;;;;;27.20;8.73;;;16.20;99.90;;;;;;5094702;28;20036;-73
2021/12/16 13:10:27;;;;;;;28.35;9.55;;;16.10;99.90;;;;;;5094794;28;20056;-72
2021/12/16 13:13:14;;;;;;;25.00;7.97;;;16.00;99.90;;;;;;5094985;28;20024;-74
2021/12/16 13:15:52;;;;;;;18.50;8.52;;;15.90;99.90;;;;;;5077336;28;20360;-74
2021/12/16 13:24:25;;;;;;;19.98;8.02;;;15.30;99.90;;;;;;5094744;28;20047;-74
2021/12/16 13:27:21;;;;;;;20.83;8.05;;;15.00;99.90;;;;;;5094731;28;20032;-74
2021/12/16 13:32:39;;;;;;;;;;;14.70;99.90;;;;;;5095201;28;20039;-72
2021/12/16 13:35:32;;;;;;;23.15;8.00;;;14.50;99.90;;;;;;5094839;28;19949;-74
2021/12/16 13:37:59;;;;;;;19.55;8.32;;;14.30;99.90;;;;;;5094893;28;20034;-76
2021/12/16 13:40:29;;;;;;;20.05;8.30;;;14.10;99.90;;;;;;5094285;28;20115;-73
2021/12/16 13:43:00;;;;;;;20.00;7.38;;;13.90;99.90;;;;;;5094658;28;20024;-74
2021/12/16 13:45:31;;;;;;;19.50;7.55;;;13.90;99.90;;;;;;5094349;28;20089;-74
2021/12/16 13:48:30;;;;;;;21.30;7.57;;;13.70;99.90;;;;;;5094163;28;20038;-75
2021/12/16 14:02:54;;;;;;;21.73;8.45;;;13.30;99.90;;;;;;5020476;28;20046;-73
2021/12/16 14:05:56;;;;;;;19.63;8.23;;;13.30;99.90;;;;;;5092056;28;20015;-75
2021/12/16 14:08:32;;;;;;;;;;;13.20;99.90;;;;;;5086231;28;20093;-75
2021/12/16 14:11:02;;;;;;;26.85;9.55;;;13.20;99.90;;;;;;5093142;28;19908;-73
2021/12/16 14:41:24;;;;;;;25.40;9.57;;;12.60;99.90;;;;;;5092931;28;20020;-73
2021/12/16 14:46:45;;;;;;;26.60;10.52;;;12.60;99.90;;;;;;5085005;28;20046;-73
2021/12/16 14:49:11;;;;;;;23.02;8.65;;;12.50;99.90;;;;;;5091396;28;20153;-73
2021/12/16 14:51:37;;;;;;;20.83;10.02;;;12.40;99.90;;;;;;5092771;28;20446;-73
2021/12/16 14:54:03;;;;;;;29.45;9.98;;;12.40;99.90;;;;;;5091291;28;20020;-74
2021/12/16 14:56:36;;;;;;;24.65;9.15;;;12.40;99.90;;;;;;5092623;28;20040;-75
2021/12/16 14:59:13;;;;;;;24.17;10.05;;;12.30;99.90;;;;;;5092999;28;20031;-73
2021/12/16 15:01:47;;;;;;;27.55;10.45;;;12.30;99.90;;;;;;5094232;28;20035;-74
2021/12/16 15:04:16;;;;;;;26.60;10.77;;;12.20;99.90;;;;;;5104356;28;20031;-74
2021/12/16 15:07:05;;;;;;;28.42;11.52;;;12.10;99.90;;;;;;5092234;28;20486;-74
2021/12/16 15:09:35;;;;;;;26.88;11.55;;;12.00;99.90;;;;;;5092356;28;20032;-75
2021/12/16 15:12:11;;;;;;;29.88;12.88;;;12.00;99.90;;;;;;5089880;28;20077;-73
2021/12/16 15:32:44;;;;;;;34.67;14.25;;;11.40;99.90;;;;;;5092893;28;20039;-73
2021/12/16 15:45:23;;;;;;;33.78;12.60;;;11.00;99.90;;;;;;5092808;28;20430;-73
2021/12/16 15:48:28;;;;;;;36.58;13.95;;;10.90;99.90;;;;;;5095700;28;20071;-74
2021/12/16 15:51:02;;;;;;;37.33;14.52;;;10.80;99.90;;;;;;5021302;28;20381;-73
2021/12/16 15:53:35;;;;;;;33.53;13.23;;;10.70;99.90;;;;;;5037472;28;20101;-74
2021/12/16 15:56:15;;;;;;;32.53;13.82;;;10.70;99.90;;;;;;5071810;28;20028;-74
2021/12/16 15:58:49;;;;;;;35.42;13.45;;;10.60;99.90;;;;;;5092581;28;20028;-75
2021/12/16 16:01:26;;;;;;;32.97;15.27;;;10.60;99.90;;;;;;5092606;28;20036;-75
2021/12/16 16:03:52;;;;;;;42.10;15.75;;;10.50;99.90;;;;;;5104312;28;20024;-74
2021/12/16 16:06:19;;;;;;;43.05;15.52;;;10.40;99.90;;;;;;5091644;28;20521;-74
2021/12/16 16:08:51;;;;;;;41.92;15.10;;;10.40;99.90;;;;;;5092578;28;20020;-75
2021/12/16 16:11:30;;;;;;;62.53;15.60;;;10.40;99.90;;;;;;5093295;28;20464;-73
2021/12/16 16:14:00;;;;;;;52.97;16.33;;;10.30;99.90;;;;;;5091192;28;20059;-74
2021/12/16 16:16:32;;;;;;;67.90;20.33;;;10.20;99.90;;;;;;5092459;28;20020;-74
2021/12/16 16:19:03;;;;;;;73.88;17.70;;;10.20;99.90;;;;;;5097576;28;20024;-75
2021/12/16 16:21:39;;;;;;;53.40;15.63;;;10.20;99.90;;;;;;5096107;28;20029;-73
2021/12/16 16:24:39;;;;;;;60.20;16.60;;;10.20;99.90;;;;;;5092389;28;20387;-75
2021/12/16 16:27:25;;;;;;;43.20;15.07;;;10.10;99.90;;;;;;5051281;28;20727;-74
2021/12/16 16:29:54;;;;;;;52.80;16.85;;;10.10;99.90;;;;;;5095937;28;20058;-73
2021/12/16 16:32:20;;;;;;;47.92;15.82;;;10.00;99.90;;;;;;5095458;28;20020;-73
2021/12/16 16:34:56;;;;;;;49.30;17.42;;;10.00;99.90;;;;;;5082458;28;20031;-74
2021/12/16 16:37:32;;;;;;;56.58;18.50;;;10.00;99.90;;;;;;5093067;28;20115;-75
2021/12/16 16:40:03;;;;;;;51.75;17.17;;;9.90;99.90;;;;;;5096076;28;20376;-74
2021/12/16 16:42:41;;;;;;;41.72;17.73;;;9.90;99.90;;;;;;5094592;28;20440;-74
2021/12/16 16:45:19;;;;;;;54.45;19.88;;;9.90;99.90;;;;;;5095031;28;20024;-74
2021/12/16 16:47:55;;;;;;;46.45;16.15;;;9.80;99.90;;;;;;5095370;28;20438;-74
2021/12/16 16:50:23;;;;;;;51.40;17.85;;;9.80;99.90;;;;;;5094776;28;20030;-75
2021/12/16 16:52:51;;;;;;;48.38;19.08;;;9.80;99.90;;;;;;5094950;28;20020;-75
2021/12/16 16:55:22;;;;;;;43.25;17.70;;;9.70;99.90;;;;;;5084482;28;20034;-75
2021/12/16 16:58:20;;;;;;;52.97;20.45;;;9.70;99.90;;;;;;5095437;28;20451;-73
2021/12/16 17:00:51;;;;;;;46.40;19.10;;;9.70;99.90;;;;;;5039093;28;20040;-75
2021/12/16 17:03:22;;;;;;;60.53;19.77;;;9.60;99.90;;;;;;5095301;28;20024;-73
2021/12/16 17:05:52;;;;;;;49.25;19.15;;;9.60;99.90;;;;;;5094966;28;20027;-74
2021/12/16 17:08:25;;;;;;;47.78;19.00;;;9.60;99.90;;;;;;5092288;28;20486;-73